sensor_id;sensor_type;location;lat;lon;timestamp;P1;durP1;ratioP1;P2;durP2;ratioP2
3427;SDS011;1727;42.624;23.406;2023-03-16T00:01:22;2.20;;;2.00;;
3427;SDS011;1727;42.624;23.406;2023-03-16T00:03:49;2.70;;;1.70;;
3427;SDS011;1727;42.624;23.406;2023-03-16T00:06:16;1.83;;;1.70;;
3427;SDS011;1727;42.624;23.406;2023-03-16T00:08:43;1.70;;;1.60;;
3427;SDS011;1727;42.624;23.406;2023-03-16T00:11:12;1.93;;;1.37;;
3427;SDS011;1727;42.624;23.406;2023-03-16T00:13:38;1.90;;;1.80;;
3427;SDS011;1727;42.624;23.406;2023-03-16T00:16:07;1.57;;;1.47;;
3427;SDS011;1727;42.624;23.406;2023-03-16T00:18:34;2.70;;;2.50;;
3427;SDS011;1727;42.624;23.406;2023-03-16T00:21:06;2.40;;;2.20;;
3427;SDS011;1727;42.624;23.406;2023-03-16T00:23:32;1.57;;;1.47;;
3427;SDS011;1727;42.624;23.406;2023-03-16T00:26:01;2.50;;;1.93;;
3427;SDS011;1727;42.624;23.406;2023-03-16T00:28:31;1.70;;;1.60;;
3427;SDS011;1727;42.624;23.406;2023-03-16T00:31:00;1.63;;;1.53;;
3427;SDS011;1727;42.624;23.406;2023-03-16T00:33:27;1.90;;;1.80;;
3427;SDS011;1727;42.624;23.406;2023-03-16T00:35:54;1.67;;;1.53;;
3427;SDS011;1727;42.624;23.406;2023-03-16T00:38:27;2.00;;;1.80;;
3427;SDS011;1727;42.624;23.406;2023-03-16T00:40:55;10.07;;;5.10;;
3427;SDS011;1727;42.624;23.406;2023-03-16T00:43:24;5.47;;;2.60;;
3427;SDS011;1727;42.624;23.406;2023-03-16T00:45:57;2.50;;;2.30;;
3427;SDS011;1727;42.624;23.406;2023-03-16T00:48:30;2.17;;;1.77;;
3427;SDS011;1727;42.624;23.406;2023-03-16T00:50:58;1.83;;;1.73;;
3427;SDS011;1727;42.624;23.406;2023-03-16T00:53:25;2.20;;;2.07;;
3427;SDS011;1727;42.624;23.406;2023-03-16T00:55:52;2.90;;;2.17;;
3427;SDS011;1727;42.624;23.406;2023-03-16T00:58:19;2.10;;;1.97;;
3427;SDS011;1727;42.624;23.406;2023-03-16T01:00:47;1.70;;;1.60;;
3427;SDS011;1727;42.624;23.406;2023-03-16T01:03:16;1.60;;;1.40;;
3427;SDS011;1727;42.624;23.406;2023-03-16T01:05:43;1.60;;;1.50;;
3427;SDS011;1727;42.624;23.406;2023-03-16T01:08:10;2.07;;;1.87;;
3427;SDS011;1727;42.624;23.406;2023-03-16T01:10:37;2.30;;;2.10;;
3427;SDS011;1727;42.624;23.406;2023-03-16T01:13:04;2.17;;;2.07;;
3427;SDS011;1727;42.624;23.406;2023-03-16T01:15:31;2.10;;;1.90;;
3427;SDS011;1727;42.624;23.406;2023-03-16T01:17:59;1.93;;;1.53;;
3427;SDS011;1727;42.624;23.406;2023-03-16T01:20:27;1.93;;;1.80;;
3427;SDS011;1727;42.624;23.406;2023-03-16T01:22:54;2.80;;;1.73;;
3427;SDS011;1727;42.624;23.406;2023-03-16T01:25:21;1.90;;;1.80;;
3427;SDS011;1727;42.624;23.406;2023-03-16T01:27:48;2.27;;;2.10;;
3427;SDS011;1727;42.624;23.406;2023-03-16T01:30:15;1.70;;;1.60;;
3427;SDS011;1727;42.624;23.406;2023-03-16T01:32:41;1.67;;;1.57;;
3427;SDS011;1727;42.624;23.406;2023-03-16T01:35:08;1.90;;;1.80;;
3427;SDS011;1727;42.624;23.406;2023-03-16T01:37:37;1.80;;;1.60;;
3427;SDS011;1727;42.624;23.406;2023-03-16T01:40:04;1.93;;;1.73;;
3427;SDS011;1727;42.624;23.406;2023-03-16T01:42:40;1.40;;;1.30;;
3427;SDS011;1727;42.624;23.406;2023-03-16T01:48:10;1.70;;;1.60;;
3427;SDS011;1727;42.624;23.406;2023-03-16T01:50:36;2.95;;;2.00;;
3427;SDS011;1727;42.624;23.406;2023-03-16T01:53:05;2.00;;;1.90;;
3427;SDS011;1727;42.624;23.406;2023-03-16T01:55:32;1.30;;;1.20;;
3427;SDS011;1727;42.624;23.406;2023-03-16T01:57:59;1.70;;;1.50;;
3427;SDS011;1727;42.624;23.406;2023-03-16T02:00:26;1.80;;;1.70;;
3427;SDS011;1727;42.624;23.406;2023-03-16T02:02:57;1.60;;;1.50;;
3427;SDS011;1727;42.624;23.406;2023-03-16T02:05:30;1.60;;;1.50;;
3427;SDS011;1727;42.624;23.406;2023-03-16T02:07:59;1.40;;;1.30;;
3427;SDS011;1727;42.624;23.406;2023-03-16T02:10:28;1.50;;;1.40;;
3427;SDS011;1727;42.624;23.406;2023-03-16T02:12:56;1.80;;;1.70;;
3427;SDS011;1727;42.624;23.406;2023-03-16T02:15:23;2.07;;;1.80;;
3427;SDS011;1727;42.624;23.406;2023-03-16T02:17:51;1.57;;;1.47;;
3427;SDS011;1727;42.624;23.406;2023-03-16T02:20:22;1.60;;;1.50;;
3427;SDS011;1727;42.624;23.406;2023-03-16T02:22:57;1.70;;;1.60;;
3427;SDS011;1727;42.624;23.406;2023-03-16T02:25:25;4.70;;;1.77;;
3427;SDS011;1727;42.624;23.406;2023-03-16T02:28:02;1.77;;;1.67;;
3427;SDS011;1727;42.624;23.406;2023-03-16T02:30:35;2.28;;;1.88;;
3427;SDS011;1727;42.624;23.406;2023-03-16T02:33:02;2.53;;;2.43;;
3427;SDS011;1727;42.624;23.406;2023-03-16T02:35:30;1.30;;;1.20;;
3427;SDS011;1727;42.624;23.406;2023-03-16T02:37:57;1.30;;;1.20;;
3427;SDS011;1727;42.624;23.406;2023-03-16T02:40:25;1.63;;;1.53;;
3427;SDS011;1727;42.624;23.406;2023-03-16T02:42:54;2.00;;;1.40;;
3427;SDS011;1727;42.624;23.406;2023-03-16T02:45:28;2.17;;;2.08;;
3427;SDS011;1727;42.624;23.406;2023-03-16T02:48:00;1.50;;;1.40;;
3427;SDS011;1727;42.624;23.406;2023-03-16T02:50:30;1.93;;;1.53;;
3427;SDS011;1727;42.624;23.406;2023-03-16T02:52:57;1.77;;;1.52;;
3427;SDS011;1727;42.624;23.406;2023-03-16T02:55:24;1.80;;;1.70;;
3427;SDS011;1727;42.624;23.406;2023-03-16T02:57:51;2.00;;;1.80;;
3427;SDS011;1727;42.624;23.406;2023-03-16T03:00:18;2.20;;;2.00;;
3427;SDS011;1727;42.624;23.406;2023-03-16T03:02:46;1.73;;;1.63;;
3427;SDS011;1727;42.624;23.406;2023-03-16T03:05:14;2.70;;;1.90;;
3427;SDS011;1727;42.624;23.406;2023-03-16T03:07:41;1.60;;;1.50;;
3427;SDS011;1727;42.624;23.406;2023-03-16T03:10:08;2.20;;;1.83;;
3427;SDS011;1727;42.624;23.406;2023-03-16T03:12:35;1.48;;;1.38;;
3427;SDS011;1727;42.624;23.406;2023-03-16T03:15:03;2.47;;;2.28;;
3427;SDS011;1727;42.624;23.406;2023-03-16T03:17:30;1.63;;;1.53;;
3427;SDS011;1727;42.624;23.406;2023-03-16T03:19:58;1.30;;;1.20;;
3427;SDS011;1727;42.624;23.406;2023-03-16T03:22:27;1.60;;;1.50;;
3427;SDS011;1727;42.624;23.406;2023-03-16T03:24:54;1.70;;;1.60;;
3427;SDS011;1727;42.624;23.406;2023-03-16T03:27:21;1.45;;;1.35;;
3427;SDS011;1727;42.624;23.406;2023-03-16T03:29:48;1.48;;;1.38;;
3427;SDS011;1727;42.624;23.406;2023-03-16T03:32:16;1.30;;;1.20;;
3427;SDS011;1727;42.624;23.406;2023-03-16T03:34:43;1.55;;;1.38;;
3427;SDS011;1727;42.624;23.406;2023-03-16T03:37:09;1.58;;;1.48;;
3427;SDS011;1727;42.624;23.406;2023-03-16T03:39:38;1.80;;;1.70;;
3427;SDS011;1727;42.624;23.406;2023-03-16T03:42:05;1.92;;;1.80;;
3427;SDS011;1727;42.624;23.406;2023-03-16T03:44:32;1.52;;;1.20;;
3427;SDS011;1727;42.624;23.406;2023-03-16T03:46:59;1.70;;;1.55;;
3427;SDS011;1727;42.624;23.406;2023-03-16T03:49:26;1.50;;;1.40;;
3427;SDS011;1727;42.624;23.406;2023-03-16T03:51:53;1.20;;;1.10;;
3427;SDS011;1727;42.624;23.406;2023-03-16T03:54:23;1.50;;;1.40;;
3427;SDS011;1727;42.624;23.406;2023-03-16T03:56:51;1.60;;;1.50;;
3427;SDS011;1727;42.624;23.406;2023-03-16T03:59:18;2.03;;;1.30;;
3427;SDS011;1727;42.624;23.406;2023-03-16T04:01:46;1.67;;;1.58;;
3427;SDS011;1727;42.624;23.406;2023-03-16T04:04:14;1.25;;;1.13;;
3427;SDS011;1727;42.624;23.406;2023-03-16T04:06:41;1.85;;;1.42;;
3427;SDS011;1727;42.624;23.406;2023-03-16T04:09:08;2.08;;;1.88;;
3427;SDS011;1727;42.624;23.406;2023-03-16T04:11:35;4.93;;;1.48;;
3427;SDS011;1727;42.624;23.406;2023-03-16T04:14:04;1.60;;;1.50;;
3427;SDS011;1727;42.624;23.406;2023-03-16T04:16:31;1.60;;;1.50;;
3427;SDS011;1727;42.624;23.406;2023-03-16T04:18:58;1.77;;;1.52;;
3427;SDS011;1727;42.624;23.406;2023-03-16T04:21:25;2.00;;;1.53;;
3427;SDS011;1727;42.624;23.406;2023-03-16T04:23:52;1.50;;;1.40;;
3427;SDS011;1727;42.624;23.406;2023-03-16T04:26:19;1.98;;;1.83;;
3427;SDS011;1727;42.624;23.406;2023-03-16T04:28:46;1.85;;;1.30;;
3427;SDS011;1727;42.624;23.406;2023-03-16T04:31:14;1.75;;;1.65;;
3427;SDS011;1727;42.624;23.406;2023-03-16T04:33:41;2.67;;;1.60;;
3427;SDS011;1727;42.624;23.406;2023-03-16T04:36:08;1.88;;;1.60;;
3427;SDS011;1727;42.624;23.406;2023-03-16T04:38:36;2.72;;;2.20;;
3427;SDS011;1727;42.624;23.406;2023-03-16T04:41:03;2.10;;;1.90;;
3427;SDS011;1727;42.624;23.406;2023-03-16T04:43:31;1.40;;;1.20;;
3427;SDS011;1727;42.624;23.406;2023-03-16T04:45:58;2.47;;;1.40;;
3427;SDS011;1727;42.624;23.406;2023-03-16T04:48:27;1.45;;;1.35;;
3427;SDS011;1727;42.624;23.406;2023-03-16T04:50:54;1.27;;;1.17;;
3427;SDS011;1727;42.624;23.406;2023-03-16T04:53:21;1.27;;;1.17;;
3427;SDS011;1727;42.624;23.406;2023-03-16T04:55:47;1.25;;;1.10;;
3427;SDS011;1727;42.624;23.406;2023-03-16T04:58:15;1.50;;;1.30;;
3427;SDS011;1727;42.624;23.406;2023-03-16T05:00:42;1.30;;;1.20;;
3427;SDS011;1727;42.624;23.406;2023-03-16T05:03:09;1.50;;;1.40;;
3427;SDS011;1727;42.624;23.406;2023-03-16T05:05:37;4.05;;;1.80;;
3427;SDS011;1727;42.624;23.406;2023-03-16T05:08:04;1.73;;;1.63;;
3427;SDS011;1727;42.624;23.406;2023-03-16T05:10:32;1.65;;;1.55;;
3427;SDS011;1727;42.624;23.406;2023-03-16T05:12:59;3.33;;;2.30;;
3427;SDS011;1727;42.624;23.406;2023-03-16T05:15:26;6.93;;;4.82;;
3427;SDS011;1727;42.624;23.406;2023-03-16T05:17:53;1.45;;;1.27;;
3427;SDS011;1727;42.624;23.406;2023-03-16T05:20:21;1.90;;;1.80;;
3427;SDS011;1727;42.624;23.406;2023-03-16T05:22:50;2.05;;;1.55;;
3427;SDS011;1727;42.624;23.406;2023-03-16T05:25:17;4.07;;;2.70;;
3427;SDS011;1727;42.624;23.406;2023-03-16T05:27:46;3.20;;;2.80;;
3427;SDS011;1727;42.624;23.406;2023-03-16T05:30:15;2.50;;;2.30;;
3427;SDS011;1727;42.624;23.406;2023-03-16T05:32:43;4.97;;;3.42;;
3427;SDS011;1727;42.624;23.406;2023-03-16T05:35:10;6.18;;;3.63;;
3427;SDS011;1727;42.624;23.406;2023-03-16T05:37:38;3.45;;;2.50;;
3427;SDS011;1727;42.624;23.406;2023-03-16T05:40:08;4.07;;;3.20;;
3427;SDS011;1727;42.624;23.406;2023-03-16T05:42:41;4.28;;;3.53;;
3427;SDS011;1727;42.624;23.406;2023-03-16T05:45:08;5.65;;;3.00;;
3427;SDS011;1727;42.624;23.406;2023-03-16T05:47:36;6.20;;;3.78;;
3427;SDS011;1727;42.624;23.406;2023-03-16T05:50:02;10.45;;;4.38;;
3427;SDS011;1727;42.624;23.406;2023-03-16T05:52:30;12.35;;;4.03;;
3427;SDS011;1727;42.624;23.406;2023-03-16T05:54:57;6.22;;;4.20;;
3427;SDS011;1727;42.624;23.406;2023-03-16T05:57:26;5.60;;;4.47;;
3427;SDS011;1727;42.624;23.406;2023-03-16T05:59:53;4.68;;;3.25;;
3427;SDS011;1727;42.624;23.406;2023-03-16T06:02:19;3.10;;;2.53;;
3427;SDS011;1727;42.624;23.406;2023-03-16T06:04:46;2.50;;;2.30;;
3427;SDS011;1727;42.624;23.406;2023-03-16T06:07:13;4.65;;;2.72;;
3427;SDS011;1727;42.624;23.406;2023-03-16T06:09:40;27.58;;;4.40;;
3427;SDS011;1727;42.624;23.406;2023-03-16T06:12:07;9.55;;;4.35;;
3427;SDS011;1727;42.624;23.406;2023-03-16T06:14:35;2.60;;;2.30;;
3427;SDS011;1727;42.624;23.406;2023-03-16T06:17:02;7.25;;;5.00;;
3427;SDS011;1727;42.624;23.406;2023-03-16T06:19:29;8.93;;;4.70;;
3427;SDS011;1727;42.624;23.406;2023-03-16T06:21:55;3.38;;;2.85;;
3427;SDS011;1727;42.624;23.406;2023-03-16T06:24:22;4.32;;;3.40;;
3427;SDS011;1727;42.624;23.406;2023-03-16T06:26:49;2.80;;;2.60;;
3427;SDS011;1727;42.624;23.406;2023-03-16T06:29:16;5.63;;;2.85;;
3427;SDS011;1727;42.624;23.406;2023-03-16T06:31:44;2.28;;;2.08;;
3427;SDS011;1727;42.624;23.406;2023-03-16T06:34:11;4.67;;;3.00;;
3427;SDS011;1727;42.624;23.406;2023-03-16T06:36:37;6.40;;;3.10;;
3427;SDS011;1727;42.624;23.406;2023-03-16T06:39:04;4.47;;;3.42;;
3427;SDS011;1727;42.624;23.406;2023-03-16T06:41:31;3.90;;;3.15;;
3427;SDS011;1727;42.624;23.406;2023-03-16T06:43:59;2.53;;;2.30;;
3427;SDS011;1727;42.624;23.406;2023-03-16T06:46:26;4.10;;;3.70;;
3427;SDS011;1727;42.624;23.406;2023-03-16T06:48:55;4.97;;;3.20;;
3427;SDS011;1727;42.624;23.406;2023-03-16T06:51:21;2.90;;;2.53;;
3427;SDS011;1727;42.624;23.406;2023-03-16T06:53:48;3.85;;;2.35;;
3427;SDS011;1727;42.624;23.406;2023-03-16T06:56:15;2.00;;;1.63;;
3427;SDS011;1727;42.624;23.406;2023-03-16T06:58:42;3.45;;;3.15;;
3427;SDS011;1727;42.624;23.406;2023-03-16T07:01:09;3.33;;;2.67;;
3427;SDS011;1727;42.624;23.406;2023-03-16T07:03:36;3.97;;;2.60;;
3427;SDS011;1727;42.624;23.406;2023-03-16T07:06:05;2.75;;;2.30;;
3427;SDS011;1727;42.624;23.406;2023-03-16T07:08:32;6.65;;;5.28;;
3427;SDS011;1727;42.624;23.406;2023-03-16T07:10:59;5.55;;;5.03;;
3427;SDS011;1727;42.624;23.406;2023-03-16T07:13:26;6.93;;;4.20;;
3427;SDS011;1727;42.624;23.406;2023-03-16T07:15:53;7.07;;;4.30;;
3427;SDS011;1727;42.624;23.406;2023-03-16T07:18:20;4.90;;;4.00;;
3427;SDS011;1727;42.624;23.406;2023-03-16T07:20:46;12.82;;;7.05;;
3427;SDS011;1727;42.624;23.406;2023-03-16T07:23:14;5.72;;;3.65;;
3427;SDS011;1727;42.624;23.406;2023-03-16T07:25:41;6.28;;;3.40;;
3427;SDS011;1727;42.624;23.406;2023-03-16T07:28:08;4.63;;;4.22;;
3427;SDS011;1727;42.624;23.406;2023-03-16T07:30:35;3.03;;;2.50;;
3427;SDS011;1727;42.624;23.406;2023-03-16T07:33:02;4.57;;;3.10;;
3427;SDS011;1727;42.624;23.406;2023-03-16T07:35:29;4.85;;;2.85;;
3427;SDS011;1727;42.624;23.406;2023-03-16T07:37:56;2.88;;;2.63;;
3427;SDS011;1727;42.624;23.406;2023-03-16T07:40:24;5.13;;;4.63;;
3427;SDS011;1727;42.624;23.406;2023-03-16T07:42:51;4.43;;;2.40;;
3427;SDS011;1727;42.624;23.406;2023-03-16T07:45:18;3.97;;;3.67;;
3427;SDS011;1727;42.624;23.406;2023-03-16T07:47:45;4.63;;;3.30;;
3427;SDS011;1727;42.624;23.406;2023-03-16T07:50:12;4.17;;;3.77;;
3427;SDS011;1727;42.624;23.406;2023-03-16T07:52:41;7.45;;;4.95;;
3427;SDS011;1727;42.624;23.406;2023-03-16T07:55:08;3.63;;;3.33;;
3427;SDS011;1727;42.624;23.406;2023-03-16T07:57:37;4.20;;;3.90;;
3427;SDS011;1727;42.624;23.406;2023-03-16T08:00:06;5.53;;;4.83;;
3427;SDS011;1727;42.624;23.406;2023-03-16T08:02:34;3.73;;;3.43;;
3427;SDS011;1727;42.624;23.406;2023-03-16T08:05:01;2.70;;;2.50;;
3427;SDS011;1727;42.624;23.406;2023-03-16T08:07:28;3.87;;;3.57;;
3427;SDS011;1727;42.624;23.406;2023-03-16T08:09:55;2.60;;;2.40;;
3427;SDS011;1727;42.624;23.406;2023-03-16T08:12:22;3.70;;;3.33;;
3427;SDS011;1727;42.624;23.406;2023-03-16T08:14:50;4.70;;;4.30;;
3427;SDS011;1727;42.624;23.406;2023-03-16T08:17:18;5.73;;;3.20;;
3427;SDS011;1727;42.624;23.406;2023-03-16T08:19:45;3.90;;;3.53;;
3427;SDS011;1727;42.624;23.406;2023-03-16T08:22:12;8.40;;;5.00;;
3427;SDS011;1727;42.624;23.406;2023-03-16T08:24:39;3.63;;;3.33;;
3427;SDS011;1727;42.624;23.406;2023-03-16T08:27:06;5.40;;;3.83;;
3427;SDS011;1727;42.624;23.406;2023-03-16T08:29:33;5.10;;;3.13;;
3427;SDS011;1727;42.624;23.406;2023-03-16T08:32:01;3.23;;;3.00;;
3427;SDS011;1727;42.624;23.406;2023-03-16T08:34:28;3.27;;;2.97;;
3427;SDS011;1727;42.624;23.406;2023-03-16T08:36:55;2.40;;;2.17;;
3427;SDS011;1727;42.624;23.406;2023-03-16T08:39:23;3.63;;;3.33;;
3427;SDS011;1727;42.624;23.406;2023-03-16T08:41:50;3.10;;;2.90;;
3427;SDS011;1727;42.624;23.406;2023-03-16T08:44:18;2.87;;;2.67;;
3427;SDS011;1727;42.624;23.406;2023-03-16T08:46:45;3.10;;;2.80;;
3427;SDS011;1727;42.624;23.406;2023-03-16T08:49:13;15.47;;;8.77;;
3427;SDS011;1727;42.624;23.406;2023-03-16T08:51:41;12.57;;;6.53;;
3427;SDS011;1727;42.624;23.406;2023-03-16T08:54:08;30.57;;;13.67;;
3427;SDS011;1727;42.624;23.406;2023-03-16T08:56:34;7.67;;;4.80;;
3427;SDS011;1727;42.624;23.406;2023-03-16T08:59:01;6.10;;;4.07;;
3427;SDS011;1727;42.624;23.406;2023-03-16T09:01:28;4.03;;;3.60;;
3427;SDS011;1727;42.624;23.406;2023-03-16T09:03:56;5.30;;;4.20;;
3427;SDS011;1727;42.624;23.406;2023-03-16T09:06:24;6.17;;;4.13;;
3427;SDS011;1727;42.624;23.406;2023-03-16T09:08:53;3.00;;;2.80;;
3427;SDS011;1727;42.624;23.406;2023-03-16T09:11:21;6.13;;;5.37;;
3427;SDS011;1727;42.624;23.406;2023-03-16T09:13:51;5.87;;;4.70;;
3427;SDS011;1727;42.624;23.406;2023-03-16T09:16:18;4.10;;;3.50;;
3427;SDS011;1727;42.624;23.406;2023-03-16T09:18:49;4.20;;;3.80;;
3427;SDS011;1727;42.624;23.406;2023-03-16T09:21:16;7.03;;;4.43;;
3427;SDS011;1727;42.624;23.406;2023-03-16T09:23:45;3.33;;;3.03;;
3427;SDS011;1727;42.624;23.406;2023-03-16T09:26:12;4.30;;;3.50;;
3427;SDS011;1727;42.624;23.406;2023-03-16T09:28:39;3.53;;;3.23;;
3427;SDS011;1727;42.624;23.406;2023-03-16T09:31:07;3.70;;;3.40;;
3427;SDS011;1727;42.624;23.406;2023-03-16T09:33:40;3.70;;;3.40;;
3427;SDS011;1727;42.624;23.406;2023-03-16T09:36:07;3.23;;;2.77;;
3427;SDS011;1727;42.624;23.406;2023-03-16T09:38:35;7.50;;;4.30;;
3427;SDS011;1727;42.624;23.406;2023-03-16T09:41:15;5.87;;;4.00;;
3427;SDS011;1727;42.624;23.406;2023-03-16T09:44:02;5.80;;;4.70;;
3427;SDS011;1727;42.624;23.406;2023-03-16T09:46:36;6.53;;;4.20;;
3427;SDS011;1727;42.624;23.406;2023-03-16T09:49:07;4.23;;;3.33;;
3427;SDS011;1727;42.624;23.406;2023-03-16T09:51:37;3.90;;;3.60;;
3427;SDS011;1727;42.624;23.406;2023-03-16T09:54:12;4.37;;;3.97;;
3427;SDS011;1727;42.624;23.406;2023-03-16T09:56:47;4.07;;;3.67;;
3427;SDS011;1727;42.624;23.406;2023-03-16T09:59:15;2.90;;;2.70;;
3427;SDS011;1727;42.624;23.406;2023-03-16T10:01:46;3.43;;;3.10;;
3427;SDS011;1727;42.624;23.406;2023-03-16T10:04:27;4.30;;;3.00;;
3427;SDS011;1727;42.624;23.406;2023-03-16T10:07:11;3.13;;;2.77;;
3427;SDS011;1727;42.624;23.406;2023-03-16T10:09:46;3.77;;;3.47;;
3427;SDS011;1727;42.624;23.406;2023-03-16T10:12:21;3.73;;;2.83;;
3427;SDS011;1727;42.624;23.406;2023-03-16T10:14:57;5.30;;;3.80;;
3427;SDS011;1727;42.624;23.406;2023-03-16T10:17:32;4.07;;;3.67;;
3427;SDS011;1727;42.624;23.406;2023-03-16T10:20:04;5.40;;;4.90;;
3427;SDS011;1727;42.624;23.406;2023-03-16T10:22:36;4.90;;;4.47;;
3427;SDS011;1727;42.624;23.406;2023-03-16T10:25:06;4.50;;;4.00;;
3427;SDS011;1727;42.624;23.406;2023-03-16T10:27:39;7.23;;;5.27;;
3427;SDS011;1727;42.624;23.406;2023-03-16T10:30:21;8.80;;;6.73;;
3427;SDS011;1727;42.624;23.406;2023-03-16T10:32:51;5.60;;;4.97;;
3427;SDS011;1727;42.624;23.406;2023-03-16T10:35:21;4.57;;;4.17;;
3427;SDS011;1727;42.624;23.406;2023-03-16T10:38:00;6.67;;;5.97;;
3427;SDS011;1727;42.624;23.406;2023-03-16T10:40:29;4.40;;;4.00;;
3427;SDS011;1727;42.624;23.406;2023-03-16T10:43:00;4.60;;;4.20;;
3427;SDS011;1727;42.624;23.406;2023-03-16T10:45:31;7.07;;;5.03;;
3427;SDS011;1727;42.624;23.406;2023-03-16T10:48:07;4.80;;;4.00;;
3427;SDS011;1727;42.624;23.406;2023-03-16T10:50:34;6.97;;;4.60;;
3427;SDS011;1727;42.624;23.406;2023-03-16T10:53:01;16.90;;;10.30;;
3427;SDS011;1727;42.624;23.406;2023-03-16T10:55:29;14.10;;;9.00;;
3427;SDS011;1727;42.624;23.406;2023-03-16T10:58:00;4.50;;;4.10;;
3427;SDS011;1727;42.624;23.406;2023-03-16T11:00:28;6.80;;;4.63;;
3427;SDS011;1727;42.624;23.406;2023-03-16T11:03:00;4.30;;;3.90;;
3427;SDS011;1727;42.624;23.406;2023-03-16T11:05:38;5.20;;;4.70;;
3427;SDS011;1727;42.624;23.406;2023-03-16T11:08:06;7.23;;;4.77;;
3427;SDS011;1727;42.624;23.406;2023-03-16T11:10:38;4.87;;;4.37;;
3427;SDS011;1727;42.624;23.406;2023-03-16T11:13:10;4.87;;;4.40;;
3427;SDS011;1727;42.624;23.406;2023-03-16T11:15:39;3.93;;;3.60;;
3427;SDS011;1727;42.624;23.406;2023-03-16T11:18:15;3.97;;;3.60;;
3427;SDS011;1727;42.624;23.406;2023-03-16T11:20:51;4.80;;;4.20;;
3427;SDS011;1727;42.624;23.406;2023-03-16T11:23:20;18.50;;;5.07;;
3427;SDS011;1727;42.624;23.406;2023-03-16T11:25:54;7.20;;;4.70;;
3427;SDS011;1727;42.624;23.406;2023-03-16T11:28:29;6.33;;;5.00;;
3427;SDS011;1727;42.624;23.406;2023-03-16T11:31:04;3.90;;;3.60;;
3427;SDS011;1727;42.624;23.406;2023-03-16T11:33:39;7.83;;;5.30;;
3427;SDS011;1727;42.624;23.406;2023-03-16T11:36:11;4.95;;;4.45;;
3427;SDS011;1727;42.624;23.406;2023-03-16T11:38:53;19.60;;;6.93;;
3427;SDS011;1727;42.624;23.406;2023-03-16T11:41:32;6.90;;;5.30;;
3427;SDS011;1727;42.624;23.406;2023-03-16T11:44:11;10.77;;;6.73;;
3427;SDS011;1727;42.624;23.406;2023-03-16T11:46:47;18.20;;;9.33;;
3427;SDS011;1727;42.624;23.406;2023-03-16T11:49:30;4.27;;;3.80;;
3427;SDS011;1727;42.624;23.406;2023-03-16T11:52:08;15.00;;;5.83;;
3427;SDS011;1727;42.624;23.406;2023-03-16T11:54:43;25.77;;;10.80;;
3427;SDS011;1727;42.624;23.406;2023-03-16T11:57:29;24.57;;;10.53;;
3427;SDS011;1727;42.624;23.406;2023-03-16T12:00:18;43.10;;;17.37;;
3427;SDS011;1727;42.624;23.406;2023-03-16T12:02:59;34.93;;;14.20;;
3427;SDS011;1727;42.624;23.406;2023-03-16T12:05:52;42.63;;;13.50;;
3427;SDS011;1727;42.624;23.406;2023-03-16T12:08:32;33.60;;;11.37;;
3427;SDS011;1727;42.624;23.406;2023-03-16T12:11:15;10.47;;;5.87;;
3427;SDS011;1727;42.624;23.406;2023-03-16T12:13:56;26.63;;;12.47;;
3427;SDS011;1727;42.624;23.406;2023-03-16T12:16:31;43.60;;;14.63;;
3427;SDS011;1727;42.624;23.406;2023-03-16T12:19:05;26.37;;;12.30;;
3427;SDS011;1727;42.624;23.406;2023-03-16T12:21:39;25.63;;;11.33;;
3427;SDS011;1727;42.624;23.406;2023-03-16T12:24:09;34.70;;;13.40;;
3427;SDS011;1727;42.624;23.406;2023-03-16T12:26:41;36.30;;;13.37;;
3427;SDS011;1727;42.624;23.406;2023-03-16T12:29:12;15.17;;;7.43;;
3427;SDS011;1727;42.624;23.406;2023-03-16T12:31:50;26.13;;;10.07;;
3427;SDS011;1727;42.624;23.406;2023-03-16T12:34:24;19.73;;;9.47;;
3427;SDS011;1727;42.624;23.406;2023-03-16T12:36:56;18.30;;;10.40;;
3427;SDS011;1727;42.624;23.406;2023-03-16T12:39:34;31.70;;;11.10;;
3427;SDS011;1727;42.624;23.406;2023-03-16T12:42:14;40.57;;;11.27;;
3427;SDS011;1727;42.624;23.406;2023-03-16T12:44:52;52.70;;;16.90;;
3427;SDS011;1727;42.624;23.406;2023-03-16T12:47:25;24.83;;;9.73;;
3427;SDS011;1727;42.624;23.406;2023-03-16T12:50:01;15.43;;;7.53;;
3427;SDS011;1727;42.624;23.406;2023-03-16T12:52:37;18.27;;;10.27;;
3427;SDS011;1727;42.624;23.406;2023-03-16T12:55:11;16.13;;;8.93;;
3427;SDS011;1727;42.624;23.406;2023-03-16T12:57:39;22.93;;;9.53;;
3427;SDS011;1727;42.624;23.406;2023-03-16T13:00:09;19.43;;;9.70;;
3427;SDS011;1727;42.624;23.406;2023-03-16T13:02:40;25.30;;;10.77;;
3427;SDS011;1727;42.624;23.406;2023-03-16T13:05:10;23.40;;;12.10;;
3427;SDS011;1727;42.624;23.406;2023-03-16T13:07:44;13.20;;;9.57;;
3427;SDS011;1727;42.624;23.406;2023-03-16T13:10:13;12.63;;;7.43;;
3427;SDS011;1727;42.624;23.406;2023-03-16T13:12:41;20.53;;;10.93;;
3427;SDS011;1727;42.624;23.406;2023-03-16T13:15:26;13.33;;;9.37;;
3427;SDS011;1727;42.624;23.406;2023-03-16T13:18:05;14.00;;;8.60;;
3427;SDS011;1727;42.624;23.406;2023-03-16T13:20:55;9.70;;;7.40;;
3427;SDS011;1727;42.624;23.406;2023-03-16T13:23:24;12.03;;;7.87;;
3427;SDS011;1727;42.624;23.406;2023-03-16T13:25:58;10.80;;;7.10;;
3427;SDS011;1727;42.624;23.406;2023-03-16T13:28:29;12.50;;;9.33;;
3427;SDS011;1727;42.624;23.406;2023-03-16T13:30:58;11.43;;;8.23;;
3427;SDS011;1727;42.624;23.406;2023-03-16T13:33:28;8.40;;;7.40;;
3427;SDS011;1727;42.624;23.406;2023-03-16T13:36:01;12.03;;;8.20;;
3427;SDS011;1727;42.624;23.406;2023-03-16T13:38:30;9.13;;;7.40;;
3427;SDS011;1727;42.624;23.406;2023-03-16T13:41:01;12.93;;;9.93;;
3427;SDS011;1727;42.624;23.406;2023-03-16T13:43:31;14.43;;;8.83;;
3427;SDS011;1727;42.624;23.406;2023-03-16T13:45:59;9.23;;;8.07;;
3427;SDS011;1727;42.624;23.406;2023-03-16T13:48:29;12.17;;;8.37;;
3427;SDS011;1727;42.624;23.406;2023-03-16T13:51:09;10.87;;;7.60;;
3427;SDS011;1727;42.624;23.406;2023-03-16T13:53:40;10.87;;;7.50;;
3427;SDS011;1727;42.624;23.406;2023-03-16T13:56:11;10.73;;;7.80;;
3427;SDS011;1727;42.624;23.406;2023-03-16T13:58:42;12.73;;;9.30;;
3427;SDS011;1727;42.624;23.406;2023-03-16T14:01:13;18.73;;;12.97;;
3427;SDS011;1727;42.624;23.406;2023-03-16T14:03:49;13.33;;;11.77;;
3427;SDS011;1727;42.624;23.406;2023-03-16T14:06:17;16.80;;;13.40;;
3427;SDS011;1727;42.624;23.406;2023-03-16T14:08:49;13.93;;;11.47;;
3427;SDS011;1727;42.624;23.406;2023-03-16T14:11:18;10.83;;;9.47;;
3427;SDS011;1727;42.624;23.406;2023-03-16T14:13:51;9.03;;;8.10;;
3427;SDS011;1727;42.624;23.406;2023-03-16T14:16:21;16.90;;;10.23;;
3427;SDS011;1727;42.624;23.406;2023-03-16T14:18:52;12.60;;;9.13;;
3427;SDS011;1727;42.624;23.406;2023-03-16T14:21:23;12.90;;;8.33;;
3427;SDS011;1727;42.624;23.406;2023-03-16T14:23:52;14.60;;;9.70;;
3427;SDS011;1727;42.624;23.406;2023-03-16T14:26:22;18.60;;;11.50;;
3427;SDS011;1727;42.624;23.406;2023-03-16T14:28:53;13.13;;;9.50;;
3427;SDS011;1727;42.624;23.406;2023-03-16T14:31:21;15.30;;;10.70;;
3427;SDS011;1727;42.624;23.406;2023-03-16T14:34:00;15.70;;;11.07;;
3427;SDS011;1727;42.624;23.406;2023-03-16T14:36:33;13.27;;;9.50;;
3427;SDS011;1727;42.624;23.406;2023-03-16T14:39:08;23.43;;;15.00;;
3427;SDS011;1727;42.624;23.406;2023-03-16T14:41:36;24.33;;;16.60;;
3427;SDS011;1727;42.624;23.406;2023-03-16T14:44:04;19.30;;;11.70;;
3427;SDS011;1727;42.624;23.406;2023-03-16T14:46:38;25.20;;;12.73;;
3427;SDS011;1727;42.624;23.406;2023-03-16T14:49:08;18.07;;;12.50;;
3427;SDS011;1727;42.624;23.406;2023-03-16T14:51:44;17.33;;;13.30;;
3427;SDS011;1727;42.624;23.406;2023-03-16T14:54:12;23.13;;;14.13;;
3427;SDS011;1727;42.624;23.406;2023-03-16T14:56:41;23.50;;;13.00;;
3427;SDS011;1727;42.624;23.406;2023-03-16T14:59:08;17.67;;;13.20;;
3427;SDS011;1727;42.624;23.406;2023-03-16T15:01:37;17.73;;;12.10;;
3427;SDS011;1727;42.624;23.406;2023-03-16T15:04:04;14.13;;;11.87;;
3427;SDS011;1727;42.624;23.406;2023-03-16T15:06:33;22.97;;;15.03;;
3427;SDS011;1727;42.624;23.406;2023-03-16T15:09:00;18.43;;;13.10;;
3427;SDS011;1727;42.624;23.406;2023-03-16T15:11:27;18.23;;;13.00;;
3427;SDS011;1727;42.624;23.406;2023-03-16T15:13:55;17.70;;;13.07;;